Greenwood Leflore Airport Greenwood US
ICAO: KGWO
IATA: GWO
Category: Medium
Scheduled Services: No

Elevation: 162 ft
TransAlt. 18000 ft.

Airport Communications:
ASOS:119.975
CLNC DEL:125.55
MEMPHIS CNTR:132.5
CTAF:118.35
GND:125.55
RDO:122.2
TWR:118.35
UNICOM:122.95

KGWO Zoom In..

If you have problems with the map follow the link
https://www.worldairports.se/pages/airport.php?
ICAO=KGWO

Runways:

(A) RW 05 length 5011 ft width 150 ft
---- / hdg 53

(B) RW 09 length 2600 ft width 60 ft
---- / hdg 92

(C) RW 18 length 6501 ft width 150 ft
ILS 111.30 / hdg 182

(D) RW 23 length 5011 ft width 150 ft
---- / hdg 233

(E) RW 27 length 2600 ft width 60 ft
---- / hdg 272

(F) RW 36 length 6501 ft width 150 ft
---- / hdg 2

Location; KGWO
Day. 21 / Time. 18.53 Zulu
* Altimeter: 30.30
* Temperature: 16° c. 60.8°f.
* Wind from: 030° Speed 04 kn.
Dewpoint: -01° c.
Visibility: 10 Statute Miles.
Clouds: Clear (automated report).

KGWO 211853Z AUTO 03004KT 10SM CLR 16/M01 A3030 RMK AO2 SLP259 T01561011


Wind From 030°
Speed 04 kn.

 
 
jpsmedia.com for Web Design worldairports.se 2018   terms of use